EXS4ND LERS-EGCC
Flight info
| Callsign | EXS4ND |
|---|---|
| Flight time | 1h 57m |
| Altitude | 34000 |
| Route | NATPI DCT EVNAM DCT TUPAR UN861 ANG DCT AKIKI UN867 AVANT UM184 HEMEL T420 ELVOS |
| Aircraft | A321/M-SDE3FGHIRWY/LB1 |
Departure
| Time | 2026-05-04 18:31 |
|---|---|
| Airport | Reus Airport (LERS) |
Arrival
| Time | 2026-05-04 20:28 |
|---|---|
| Airport | Manchester Airport (EGCC) |
| Time | Latitude | Longitude | Altitude | Speed | Heading |
|---|---|---|---|---|---|
| 2026-05-04 17:46 | 41.14698 | 1.15682 | 249 ft | 0 kts | 339° |
| 2026-05-04 18:19 | 41.14683 | 1.15689 | 227 ft | 4 kts | 341° |
| 2026-05-04 18:20 | 41.14657 | 1.15700 | 252 ft | 4 kts | 348° |
| 2026-05-04 18:20 | 41.14630 | 1.15705 | 252 ft | 4 kts | 358° |
| 2026-05-04 18:20 | 41.14616 | 1.15705 | 252 ft | 1 kts | 3° |
| 2026-05-04 18:24 | 41.14629 | 1.15717 | 252 ft | 5 kts | 56° |
| 2026-05-04 18:24 | 41.14645 | 1.15776 | 252 ft | 8 kts | 72° |
| 2026-05-04 18:24 | 41.14660 | 1.15837 | 252 ft | 8 kts | 72° |
| 2026-05-04 18:25 | 41.14682 | 1.15914 | 252 ft | 10 kts | 68° |
| 2026-05-04 18:25 | 41.14710 | 1.16007 | 252 ft | 12 kts | 68° |
| 2026-05-04 18:25 | 41.14742 | 1.16116 | 252 ft | 13 kts | 69° |
| 2026-05-04 18:25 | 41.14777 | 1.16236 | 252 ft | 15 kts | 69° |
| 2026-05-04 18:26 | 41.14815 | 1.16366 | 252 ft | 16 kts | 69° |
| 2026-05-04 18:26 | 41.14854 | 1.16505 | 252 ft | 17 kts | 69° |
| 2026-05-04 18:26 | 41.14884 | 1.16606 | 252 ft | 5 kts | 69° |
| 2026-05-04 18:26 | 41.14888 | 1.16621 | 252 ft | 2 kts | 69° |
| 2026-05-04 18:27 | 41.14906 | 1.16680 | 252 ft | 11 kts | 68° |
| 2026-05-04 18:27 | 41.14937 | 1.16786 | 252 ft | 13 kts | 69° |
| 2026-05-04 18:27 | 41.14972 | 1.16908 | 252 ft | 15 kts | 69° |
| 2026-05-04 18:27 | 41.15013 | 1.17042 | 252 ft | 16 kts | 67° |
| 2026-05-04 18:28 | 41.15054 | 1.17187 | 251 ft | 17 kts | 69° |
| 2026-05-04 18:28 | 41.15099 | 1.17343 | 251 ft | 19 kts | 69° |
| 2026-05-04 18:28 | 41.15147 | 1.17508 | 251 ft | 20 kts | 69° |
| 2026-05-04 18:28 | 41.15199 | 1.17682 | 251 ft | 21 kts | 68° |
| 2026-05-04 18:29 | 41.15253 | 1.17865 | 252 ft | 22 kts | 69° |
| 2026-05-04 18:29 | 41.15309 | 1.18059 | 252 ft | 23 kts | 69° |
| 2026-05-04 18:29 | 41.15345 | 1.18185 | 252 ft | 13 kts | 78° |
| 2026-05-04 18:29 | 41.15307 | 1.18250 | 252 ft | 0 kts | 158° |
| 2026-05-04 18:30 | 41.15220 | 1.18288 | 251 ft | 14 kts | 186° |
| 2026-05-04 18:30 | 41.15170 | 1.18188 | 251 ft | 2 kts | 247° |
| 2026-05-04 18:30 | 41.15129 | 1.18056 | 251 ft | 49 kts | 249° |
| 2026-05-04 18:31 | 41.14918 | 1.17329 | 252 ft | 116 kts | 249° |
| 2026-05-04 18:31 | 41.14569 | 1.16135 | 426 ft | 146 kts | 249° |
| 2026-05-04 18:31 | 41.14180 | 1.14926 | 1002 ft | 145 kts | 239° |
| 2026-05-04 18:31 | 41.13590 | 1.13757 | 1364 ft | 159 kts | 236° |
| 2026-05-04 18:32 | 41.12932 | 1.12429 | 1719 ft | 186 kts | 238° |
| 2026-05-04 18:32 | 41.12245 | 1.10847 | 2192 ft | 207 kts | 242° |
| 2026-05-04 18:32 | 41.11522 | 1.09064 | 2637 ft | 233 kts | 239° |
| 2026-05-04 18:32 | 41.10648 | 1.07155 | 3281 ft | 248 kts | 240° |
| 2026-05-04 18:33 | 41.10049 | 1.05848 | 3853 ft | 252 kts | 240° |
| 2026-05-04 18:33 | 41.09134 | 1.03844 | 4622 ft | 255 kts | 242° |
| 2026-05-04 18:33 | 41.08216 | 1.01820 | 5153 ft | 257 kts | 242° |
| 2026-05-04 18:33 | 41.07295 | 0.99784 | 5640 ft | 258 kts | 242° |
| 2026-05-04 18:34 | 41.06371 | 0.97741 | 6102 ft | 259 kts | 242° |
| 2026-05-04 18:34 | 41.05438 | 0.95675 | 6887 ft | 263 kts | 242° |
| 2026-05-04 18:34 | 41.04501 | 0.93592 | 7749 ft | 265 kts | 241° |
| 2026-05-04 18:34 | 41.03557 | 0.91481 | 8665 ft | 267 kts | 243° |
| 2026-05-04 18:35 | 41.02957 | 0.89173 | 9547 ft | 268 kts | 262° |
| 2026-05-04 18:35 | 41.03028 | 0.86684 | 10264 ft | 280 kts | 281° |
| 2026-05-04 18:35 | 41.03866 | 0.84246 | 10584 ft | 307 kts | 304° |
| 2026-05-04 18:35 | 41.05522 | 0.82345 | 11135 ft | 326 kts | 328° |
| 2026-05-04 18:36 | 41.07729 | 0.81466 | 11872 ft | 340 kts | 352° |
| 2026-05-04 18:36 | 41.10111 | 0.81799 | 12657 ft | 352 kts | 14° |
| 2026-05-04 18:36 | 41.12404 | 0.83028 | 13470 ft | 358 kts | 21° |
| 2026-05-04 18:36 | 41.14697 | 0.84389 | 14184 ft | 364 kts | 21° |
| 2026-05-04 18:37 | 41.17043 | 0.85717 | 14858 ft | 369 kts | 20° |
| 2026-05-04 18:37 | 41.19430 | 0.87001 | 15575 ft | 372 kts | 19° |
| 2026-05-04 18:37 | 41.21857 | 0.88262 | 16254 ft | 377 kts | 19° |
| 2026-05-04 18:37 | 41.24317 | 0.89529 | 16935 ft | 382 kts | 19° |
| 2026-05-04 18:38 | 41.26819 | 0.90735 | 17608 ft | 385 kts | 12° |
| 2026-05-04 18:38 | 41.29448 | 0.91424 | 18263 ft | 386 kts | 6° |
| 2026-05-04 18:38 | 41.32119 | 0.91963 | 18835 ft | 390 kts | 5° |
| 2026-05-04 18:38 | 41.34820 | 0.92499 | 19429 ft | 395 kts | 6° |
| 2026-05-04 18:39 | 41.37550 | 0.93073 | 19995 ft | 398 kts | 6° |
| 2026-05-04 18:39 | 41.40261 | 0.93672 | 20552 ft | 402 kts | 7° |
| 2026-05-04 18:39 | 41.43072 | 0.94302 | 21118 ft | 406 kts | 7° |
| 2026-05-04 18:39 | 41.45873 | 0.94925 | 21665 ft | 410 kts | 6° |
| 2026-05-04 18:40 | 41.48699 | 0.95553 | 22215 ft | 414 kts | 7° |
| 2026-05-04 18:40 | 41.51514 | 0.96181 | 22752 ft | 418 kts | 7° |
| 2026-05-04 18:40 | 41.54393 | 0.96825 | 23283 ft | 421 kts | 7° |
| 2026-05-04 18:40 | 41.57300 | 0.97473 | 23754 ft | 426 kts | 7° |
| 2026-05-04 18:41 | 41.60237 | 0.98119 | 24181 ft | 429 kts | 7° |
| 2026-05-04 18:41 | 41.63196 | 0.98769 | 24634 ft | 432 kts | 7° |
| 2026-05-04 18:41 | 41.66175 | 0.99424 | 25066 ft | 435 kts | 7° |
| 2026-05-04 18:41 | 41.69174 | 1.00091 | 25506 ft | 438 kts | 6° |
| 2026-05-04 18:42 | 41.72191 | 1.00764 | 25953 ft | 441 kts | 6° |
| 2026-05-04 18:42 | 41.75228 | 1.01445 | 26372 ft | 444 kts | 6° |
| 2026-05-04 18:42 | 41.78285 | 1.02133 | 26804 ft | 447 kts | 7° |
| 2026-05-04 18:42 | 41.81367 | 1.02824 | 27181 ft | 451 kts | 7° |
| 2026-05-04 18:43 | 41.84471 | 1.03520 | 27571 ft | 454 kts | 7° |
| 2026-05-04 18:43 | 41.87595 | 1.04226 | 27951 ft | 456 kts | 7° |
| 2026-05-04 18:43 | 41.90736 | 1.04935 | 28332 ft | 459 kts | 7° |
| 2026-05-04 18:43 | 41.93894 | 1.05646 | 28702 ft | 462 kts | 7° |
| 2026-05-04 18:44 | 41.97072 | 1.06363 | 29081 ft | 464 kts | 7° |
| 2026-05-04 18:44 | 41.99230 | 1.06851 | 29343 ft | 466 kts | 7° |
| 2026-05-04 18:44 | 42.03482 | 1.07813 | 29776 ft | 470 kts | 7° |
| 2026-05-04 18:44 | 42.06719 | 1.08545 | 30097 ft | 473 kts | 7° |
| 2026-05-04 18:45 | 42.09965 | 1.09282 | 30381 ft | 475 kts | 7° |
| 2026-05-04 18:45 | 42.13242 | 1.10029 | 30662 ft | 478 kts | 7° |
| 2026-05-04 18:45 | 42.16529 | 1.10775 | 30952 ft | 480 kts | 7° |
| 2026-05-04 18:45 | 42.19832 | 1.11522 | 31219 ft | 483 kts | 7° |
| 2026-05-04 18:46 | 42.23153 | 1.12284 | 31461 ft | 486 kts | 7° |
| 2026-05-04 18:46 | 42.26489 | 1.13042 | 31714 ft | 488 kts | 7° |
| 2026-05-04 18:46 | 42.29850 | 1.13804 | 31988 ft | 491 kts | 7° |
| 2026-05-04 18:46 | 42.33222 | 1.14577 | 32246 ft | 493 kts | 7° |
| 2026-05-04 18:47 | 42.36606 | 1.15357 | 32508 ft | 494 kts | 6° |
| 2026-05-04 18:47 | 42.39994 | 1.16128 | 32790 ft | 494 kts | 6° |
| 2026-05-04 18:47 | 42.43385 | 1.16901 | 33109 ft | 494 kts | 6° |
| 2026-05-04 18:47 | 42.46775 | 1.17677 | 33418 ft | 494 kts | 6° |
| 2026-05-04 18:48 | 42.50165 | 1.18454 | 33708 ft | 494 kts | 6° |
| 2026-05-04 18:48 | 42.53558 | 1.19233 | 33939 ft | 495 kts | 6° |
| 2026-05-04 18:48 | 42.56943 | 1.20014 | 33988 ft | 494 kts | 6° |
| 2026-05-04 18:49 | 42.63723 | 1.21579 | 33985 ft | 493 kts | 7° |
| 2026-05-04 18:49 | 42.70493 | 1.23122 | 33961 ft | 493 kts | 5° |
| 2026-05-04 18:49 | 42.73903 | 1.23492 | 33959 ft | 487 kts | 354° |
| 2026-05-04 18:50 | 42.77269 | 1.23100 | 33966 ft | 485 kts | 349° |
| 2026-05-04 18:50 | 42.83978 | 1.22047 | 33993 ft | 485 kts | 349° |
| 2026-05-04 18:51 | 42.90685 | 1.21079 | 33971 ft | 485 kts | 349° |
| 2026-05-04 18:51 | 42.97391 | 1.20142 | 33966 ft | 484 kts | 350° |
| 2026-05-04 18:52 | 43.04111 | 1.19221 | 33976 ft | 488 kts | 351° |
| 2026-05-04 18:52 | 43.10879 | 1.18281 | 33973 ft | 489 kts | 351° |
| 2026-05-04 18:53 | 43.17650 | 1.17342 | 33974 ft | 489 kts | 351° |
| 2026-05-04 18:53 | 43.24432 | 1.16410 | 33971 ft | 490 kts | 351° |
| 2026-05-04 18:54 | 43.31223 | 1.15463 | 33968 ft | 491 kts | 351° |
| 2026-05-04 18:54 | 43.37979 | 1.14522 | 33995 ft | 490 kts | 351° |
| 2026-05-04 18:55 | 43.44689 | 1.13588 | 33966 ft | 482 kts | 351° |
| 2026-05-04 18:55 | 43.54688 | 1.12184 | 33949 ft | 481 kts | 351° |
| 2026-05-04 18:56 | 43.61281 | 1.10770 | 33957 ft | 475 kts | 338° |
| 2026-05-04 18:56 | 43.67358 | 1.07297 | 33961 ft | 474 kts | 332° |
| 2026-05-04 18:57 | 43.73393 | 1.03621 | 33949 ft | 474 kts | 332° |
| 2026-05-04 18:57 | 43.79452 | 0.99980 | 33940 ft | 474 kts | 332° |
| 2026-05-04 18:58 | 43.85508 | 0.96339 | 33941 ft | 476 kts | 332° |
| 2026-05-04 18:58 | 43.91590 | 0.92683 | 33936 ft | 477 kts | 332° |
| 2026-05-04 18:59 | 43.97671 | 0.89010 | 33936 ft | 477 kts | 332° |
| 2026-05-04 18:59 | 44.03761 | 0.85326 | 33950 ft | 478 kts | 333° |
| 2026-05-04 19:00 | 44.09860 | 0.81587 | 33960 ft | 480 kts | 332° |
| 2026-05-04 19:00 | 44.15988 | 0.77842 | 33958 ft | 481 kts | 333° |
| 2026-05-04 19:01 | 44.22121 | 0.74125 | 33977 ft | 480 kts | 332° |
| 2026-05-04 19:01 | 44.28252 | 0.70358 | 33966 ft | 482 kts | 333° |
| 2026-05-04 19:02 | 44.34362 | 0.66633 | 33925 ft | 482 kts | 333° |
| 2026-05-04 19:02 | 44.40548 | 0.62845 | 33923 ft | 482 kts | 332° |
| 2026-05-04 19:03 | 44.46696 | 0.59042 | 33924 ft | 484 kts | 333° |
| 2026-05-04 19:03 | 44.52884 | 0.55266 | 33924 ft | 485 kts | 333° |
| 2026-05-04 19:04 | 44.59013 | 0.51500 | 33931 ft | 485 kts | 333° |
| 2026-05-04 19:04 | 44.65228 | 0.47646 | 33935 ft | 486 kts | 333° |
| 2026-05-04 19:05 | 44.71419 | 0.43813 | 33929 ft | 486 kts | 333° |
| 2026-05-04 19:05 | 44.77604 | 0.39952 | 33933 ft | 486 kts | 333° |
| 2026-05-04 19:06 | 44.83788 | 0.36099 | 33951 ft | 485 kts | 333° |
| 2026-05-04 19:06 | 44.89949 | 0.32230 | 33934 ft | 485 kts | 332° |
| 2026-05-04 19:07 | 44.96111 | 0.28366 | 33931 ft | 485 kts | 333° |
| 2026-05-04 19:07 | 45.02299 | 0.24545 | 33927 ft | 487 kts | 333° |
| 2026-05-04 19:08 | 45.08499 | 0.20660 | 33926 ft | 488 kts | 333° |
| 2026-05-04 19:08 | 45.14657 | 0.16778 | 33925 ft | 487 kts | 333° |
| 2026-05-04 19:09 | 45.20890 | 0.12837 | 33932 ft | 488 kts | 333° |
| 2026-05-04 19:09 | 45.27059 | 0.08931 | 33936 ft | 488 kts | 333° |
| 2026-05-04 19:10 | 45.33305 | 0.04965 | 33940 ft | 488 kts | 333° |
| 2026-05-04 19:10 | 45.39507 | 0.01014 | 33939 ft | 488 kts | 333° |
| 2026-05-04 19:11 | 45.45684 | -0.02933 | 33972 ft | 484 kts | 333° |
| 2026-05-04 19:11 | 45.51815 | -0.06866 | 33962 ft | 483 kts | 333° |
| 2026-05-04 19:12 | 45.61003 | -0.12770 | 33961 ft | 483 kts | 333° |
| 2026-05-04 19:13 | 45.67133 | -0.16720 | 33972 ft | 483 kts | 333° |
| 2026-05-04 19:13 | 45.73257 | -0.20669 | 33944 ft | 483 kts | 333° |
| 2026-05-04 19:14 | 45.79383 | -0.24634 | 33935 ft | 484 kts | 333° |
| 2026-05-04 19:14 | 45.84487 | -0.27937 | 33944 ft | 485 kts | 333° |
| 2026-05-04 19:15 | 45.90635 | -0.31922 | 33924 ft | 485 kts | 333° |
| 2026-05-04 19:15 | 45.97814 | -0.36597 | 33932 ft | 485 kts | 333° |
| 2026-05-04 19:16 | 46.02935 | -0.39942 | 33939 ft | 487 kts | 333° |
| 2026-05-04 19:16 | 46.09100 | -0.43976 | 33928 ft | 487 kts | 333° |
| 2026-05-04 19:17 | 46.15265 | -0.48019 | 33935 ft | 487 kts | 333° |
| 2026-05-04 19:17 | 46.21437 | -0.52075 | 33936 ft | 488 kts | 333° |
| 2026-05-04 19:18 | 46.27614 | -0.56151 | 33934 ft | 488 kts | 333° |
| 2026-05-04 19:18 | 46.33793 | -0.60233 | 33937 ft | 488 kts | 333° |
| 2026-05-04 19:19 | 46.39968 | -0.64318 | 33931 ft | 489 kts | 333° |
| 2026-05-04 19:19 | 46.46530 | -0.66954 | 33962 ft | 492 kts | 352° |
| 2026-05-04 19:20 | 46.53334 | -0.68061 | 33962 ft | 492 kts | 353° |
| 2026-05-04 19:20 | 46.60151 | -0.69162 | 33953 ft | 494 kts | 353° |
| 2026-05-04 19:21 | 46.66986 | -0.70318 | 33952 ft | 495 kts | 353° |
| 2026-05-04 19:21 | 46.73822 | -0.71492 | 33943 ft | 495 kts | 353° |
| 2026-05-04 19:22 | 46.80661 | -0.72633 | 33942 ft | 495 kts | 353° |
| 2026-05-04 19:22 | 46.87496 | -0.73829 | 33946 ft | 495 kts | 353° |
| 2026-05-04 19:23 | 46.94336 | -0.74970 | 33950 ft | 495 kts | 353° |
| 2026-05-04 19:23 | 47.01176 | -0.76126 | 33945 ft | 495 kts | 353° |
| 2026-05-04 19:24 | 47.08020 | -0.77310 | 33945 ft | 495 kts | 353° |
| 2026-05-04 19:24 | 47.14867 | -0.78480 | 33945 ft | 495 kts | 353° |
| 2026-05-04 19:25 | 47.21713 | -0.79655 | 33952 ft | 495 kts | 353° |
| 2026-05-04 19:25 | 47.28512 | -0.80828 | 33941 ft | 495 kts | 353° |
| 2026-05-04 19:26 | 47.35357 | -0.82014 | 33953 ft | 495 kts | 353° |
| 2026-05-04 19:26 | 47.42204 | -0.83197 | 33960 ft | 495 kts | 353° |
| 2026-05-04 19:27 | 47.49042 | -0.84396 | 33932 ft | 494 kts | 353° |
| 2026-05-04 19:27 | 47.55849 | -0.85759 | 33932 ft | 493 kts | 349° |
| 2026-05-04 19:28 | 47.62603 | -0.87552 | 33934 ft | 494 kts | 349° |
| 2026-05-04 19:28 | 47.69368 | -0.89356 | 33936 ft | 494 kts | 349° |
| 2026-05-04 19:29 | 47.76132 | -0.91162 | 33936 ft | 494 kts | 349° |
| 2026-05-04 19:29 | 47.82894 | -0.92964 | 33935 ft | 493 kts | 349° |
| 2026-05-04 19:30 | 47.89643 | -0.94762 | 33944 ft | 493 kts | 349° |
| 2026-05-04 19:30 | 47.96391 | -0.96563 | 33944 ft | 493 kts | 349° |
| 2026-05-04 19:31 | 48.03138 | -0.98377 | 33946 ft | 492 kts | 349° |
| 2026-05-04 19:31 | 48.09876 | -1.00198 | 33949 ft | 492 kts | 349° |
| 2026-05-04 19:32 | 48.16614 | -1.02016 | 33955 ft | 492 kts | 349° |
| 2026-05-04 19:32 | 48.23352 | -1.03836 | 33961 ft | 492 kts | 349° |
| 2026-05-04 19:33 | 48.30081 | -1.05662 | 33962 ft | 491 kts | 349° |
| 2026-05-04 19:33 | 48.36806 | -1.07498 | 33964 ft | 491 kts | 349° |
| 2026-05-04 19:34 | 48.43532 | -1.09330 | 33971 ft | 491 kts | 349° |
| 2026-05-04 19:34 | 48.50250 | -1.11168 | 33972 ft | 490 kts | 348° |
| 2026-05-04 19:35 | 48.56927 | -1.13007 | 33978 ft | 490 kts | 348° |
| 2026-05-04 19:35 | 48.63642 | -1.14853 | 33979 ft | 490 kts | 348° |
| 2026-05-04 19:36 | 48.70350 | -1.16705 | 33978 ft | 490 kts | 349° |
| 2026-05-04 19:36 | 48.77046 | -1.18554 | 33986 ft | 490 kts | 348° |
| 2026-05-04 19:37 | 48.83748 | -1.20411 | 33985 ft | 489 kts | 348° |
| 2026-05-04 19:37 | 48.90447 | -1.22280 | 33984 ft | 489 kts | 348° |
| 2026-05-04 19:38 | 48.97146 | -1.24146 | 33988 ft | 489 kts | 348° |
| 2026-05-04 19:38 | 49.03853 | -1.26022 | 33987 ft | 489 kts | 348° |
| 2026-05-04 19:39 | 49.10547 | -1.27903 | 33991 ft | 488 kts | 348° |
| 2026-05-04 19:39 | 49.17225 | -1.29782 | 33990 ft | 488 kts | 348° |
| 2026-05-04 19:40 | 49.23899 | -1.31666 | 33992 ft | 488 kts | 348° |
| 2026-05-04 19:40 | 49.30575 | -1.33554 | 34011 ft | 487 kts | 349° |
| 2026-05-04 19:41 | 49.37215 | -1.35433 | 33999 ft | 484 kts | 348° |
| 2026-05-04 19:41 | 49.43844 | -1.37319 | 33998 ft | 484 kts | 348° |
| 2026-05-04 19:42 | 49.50475 | -1.39210 | 33994 ft | 484 kts | 348° |
| 2026-05-04 19:42 | 49.57091 | -1.41098 | 33994 ft | 483 kts | 349° |
| 2026-05-04 19:42 | 49.60432 | -1.41568 | 33990 ft | 483 kts | 0° |
| 2026-05-04 19:43 | 49.63789 | -1.41334 | 33998 ft | 483 kts | 3° |
| 2026-05-04 19:43 | 49.70455 | -1.40729 | 33996 ft | 483 kts | 4° |
| 2026-05-04 19:44 | 49.77153 | -1.40133 | 33994 ft | 480 kts | 3° |
| 2026-05-04 19:44 | 49.83802 | -1.39542 | 33997 ft | 478 kts | 3° |
| 2026-05-04 19:45 | 49.90443 | -1.38949 | 34000 ft | 478 kts | 3° |
| 2026-05-04 19:45 | 49.97082 | -1.38359 | 33995 ft | 477 kts | 3° |
| 2026-05-04 19:46 | 50.03630 | -1.37213 | 34006 ft | 472 kts | 9° |
| 2026-05-04 19:46 | 50.10167 | -1.35566 | 33996 ft | 479 kts | 9° |
| 2026-05-04 19:47 | 50.16760 | -1.33918 | 34000 ft | 480 kts | 9° |
| 2026-05-04 19:47 | 50.23337 | -1.32281 | 34006 ft | 476 kts | 9° |
| 2026-05-04 19:48 | 50.29872 | -1.30646 | 34016 ft | 475 kts | 9° |
| 2026-05-04 19:48 | 50.36405 | -1.29000 | 34015 ft | 475 kts | 9° |
| 2026-05-04 19:49 | 50.42934 | -1.27350 | 34006 ft | 474 kts | 9° |
| 2026-05-04 19:49 | 50.49384 | -1.25460 | 33992 ft | 471 kts | 18° |
| 2026-05-04 19:49 | 50.52380 | -1.23434 | 33999 ft | 469 kts | 31° |
| 2026-05-04 19:50 | 50.55163 | -1.20756 | 34015 ft | 468 kts | 34° |
| 2026-05-04 19:50 | 50.60650 | -1.15210 | 33996 ft | 468 kts | 34° |
| 2026-05-04 19:51 | 50.66115 | -1.09635 | 34006 ft | 467 kts | 34° |
| 2026-05-04 19:51 | 50.71584 | -1.04155 | 34012 ft | 466 kts | 33° |
| 2026-05-04 19:52 | 50.77055 | -0.98662 | 34016 ft | 466 kts | 34° |
| 2026-05-04 19:52 | 50.82648 | -0.93506 | 34019 ft | 467 kts | 22° |
| 2026-05-04 19:53 | 50.88815 | -0.90275 | 34031 ft | 466 kts | 17° |
| 2026-05-04 19:53 | 50.94964 | -0.87162 | 34023 ft | 463 kts | 18° |
| 2026-05-04 19:54 | 51.01086 | -0.83992 | 34039 ft | 463 kts | 18° |
| 2026-05-04 19:54 | 51.07206 | -0.80804 | 34043 ft | 463 kts | 18° |
| 2026-05-04 19:55 | 51.13326 | -0.77610 | 34034 ft | 463 kts | 18° |
| 2026-05-04 19:55 | 51.19449 | -0.74416 | 34027 ft | 463 kts | 18° |
| 2026-05-04 19:56 | 51.24528 | -0.71752 | 34027 ft | 463 kts | 18° |
| 2026-05-04 19:56 | 51.30644 | -0.68534 | 34032 ft | 462 kts | 18° |
| 2026-05-04 19:57 | 51.36760 | -0.65309 | 34029 ft | 463 kts | 18° |
| 2026-05-04 19:57 | 51.42885 | -0.62074 | 34033 ft | 463 kts | 18° |
| 2026-05-04 19:58 | 51.49015 | -0.58825 | 34045 ft | 463 kts | 18° |
| 2026-05-04 19:58 | 51.55126 | -0.55577 | 34041 ft | 463 kts | 18° |
| 2026-05-04 19:59 | 51.61242 | -0.52317 | 34044 ft | 465 kts | 18° |
| 2026-05-04 19:59 | 51.67394 | -0.49031 | 34052 ft | 466 kts | 18° |
| 2026-05-04 20:00 | 51.73547 | -0.45737 | 34065 ft | 466 kts | 17° |
| 2026-05-04 20:00 | 51.79537 | -0.44299 | 34060 ft | 465 kts | 356° |
| 2026-05-04 20:00 | 51.82724 | -0.45085 | 34059 ft | 462 kts | 343° |
| 2026-05-04 20:01 | 51.85711 | -0.46929 | 34058 ft | 459 kts | 330° |
| 2026-05-04 20:01 | 51.91100 | -0.52116 | 34046 ft | 442 kts | 326° |
| 2026-05-04 20:02 | 51.96437 | -0.57406 | 34059 ft | 456 kts | 327° |
| 2026-05-04 20:02 | 52.01880 | -0.62735 | 34054 ft | 457 kts | 327° |
| 2026-05-04 20:02 | 52.04571 | -0.65369 | 34051 ft | 443 kts | 327° |
| 2026-05-04 20:03 | 52.07165 | -0.67910 | 33827 ft | 431 kts | 327° |
| 2026-05-04 20:03 | 52.09760 | -0.70462 | 33630 ft | 435 kts | 327° |
| 2026-05-04 20:03 | 52.12287 | -0.72953 | 33845 ft | 420 kts | 327° |
| 2026-05-04 20:04 | 52.17285 | -0.77896 | 32989 ft | 421 kts | 326° |
| 2026-05-04 20:04 | 52.19800 | -0.80385 | 32099 ft | 425 kts | 326° |
| 2026-05-04 20:04 | 52.22345 | -0.82906 | 31177 ft | 431 kts | 326° |
| 2026-05-04 20:04 | 52.24922 | -0.85462 | 30239 ft | 436 kts | 326° |
| 2026-05-04 20:05 | 52.27535 | -0.88055 | 29123 ft | 442 kts | 326° |
| 2026-05-04 20:05 | 52.30181 | -0.90684 | 27970 ft | 448 kts | 326° |
| 2026-05-04 20:05 | 52.32840 | -0.93329 | 27305 ft | 443 kts | 326° |
| 2026-05-04 20:05 | 52.35437 | -0.95912 | 26985 ft | 430 kts | 326° |
| 2026-05-04 20:06 | 52.37948 | -0.98420 | 26741 ft | 416 kts | 326° |
| 2026-05-04 20:06 | 52.40378 | -1.00847 | 26533 ft | 402 kts | 326° |
| 2026-05-04 20:06 | 52.42737 | -1.03205 | 26142 ft | 394 kts | 326° |
| 2026-05-04 20:06 | 52.45072 | -1.05545 | 25554 ft | 392 kts | 325° |
| 2026-05-04 20:07 | 52.47378 | -1.07861 | 24995 ft | 390 kts | 325° |
| 2026-05-04 20:07 | 52.49694 | -1.10191 | 24459 ft | 387 kts | 325° |
| 2026-05-04 20:07 | 52.51981 | -1.12492 | 23954 ft | 384 kts | 324° |
| 2026-05-04 20:07 | 52.54248 | -1.14768 | 23537 ft | 378 kts | 324° |
| 2026-05-04 20:08 | 52.56477 | -1.17011 | 22956 ft | 375 kts | 324° |
| 2026-05-04 20:08 | 52.58692 | -1.19242 | 22409 ft | 372 kts | 324° |
| 2026-05-04 20:08 | 52.60884 | -1.21451 | 21900 ft | 367 kts | 324° |
| 2026-05-04 20:08 | 52.63047 | -1.23640 | 21424 ft | 363 kts | 324° |
| 2026-05-04 20:09 | 52.65183 | -1.25801 | 20971 ft | 358 kts | 325° |
| 2026-05-04 20:09 | 52.67291 | -1.27937 | 20536 ft | 353 kts | 325° |
| 2026-05-04 20:09 | 52.69373 | -1.30045 | 20136 ft | 350 kts | 325° |
| 2026-05-04 20:09 | 52.71437 | -1.32143 | 19641 ft | 349 kts | 326° |
| 2026-05-04 20:10 | 52.73520 | -1.34265 | 18977 ft | 354 kts | 326° |
| 2026-05-04 20:10 | 52.75611 | -1.36395 | 18498 ft | 352 kts | 326° |
| 2026-05-04 20:10 | 52.77683 | -1.38513 | 17981 ft | 349 kts | 326° |
| 2026-05-04 20:10 | 52.79740 | -1.40618 | 17462 ft | 346 kts | 326° |
| 2026-05-04 20:11 | 52.81779 | -1.42703 | 16973 ft | 343 kts | 326° |
| 2026-05-04 20:11 | 52.83802 | -1.44775 | 16470 ft | 341 kts | 326° |
| 2026-05-04 20:11 | 52.85808 | -1.46828 | 16025 ft | 337 kts | 326° |
| 2026-05-04 20:11 | 52.87786 | -1.48859 | 15625 ft | 332 kts | 326° |
| 2026-05-04 20:12 | 52.89736 | -1.50860 | 15265 ft | 327 kts | 326° |
| 2026-05-04 20:12 | 52.91640 | -1.52819 | 15051 ft | 317 kts | 327° |
| 2026-05-04 20:12 | 52.93488 | -1.54721 | 14790 ft | 310 kts | 327° |
| 2026-05-04 20:12 | 52.95307 | -1.56597 | 14416 ft | 307 kts | 327° |
| 2026-05-04 20:13 | 52.97113 | -1.58463 | 14023 ft | 305 kts | 327° |
| 2026-05-04 20:13 | 52.98910 | -1.60319 | 13605 ft | 304 kts | 327° |
| 2026-05-04 20:13 | 53.00697 | -1.62166 | 13225 ft | 301 kts | 326° |
| 2026-05-04 20:13 | 53.02469 | -1.63999 | 12884 ft | 299 kts | 327° |
| 2026-05-04 20:14 | 53.04229 | -1.65821 | 12553 ft | 297 kts | 326° |
| 2026-05-04 20:14 | 53.05859 | -1.67890 | 12226 ft | 294 kts | 313° |
| 2026-05-04 20:14 | 53.07218 | -1.70412 | 11913 ft | 292 kts | 309° |
| 2026-05-04 20:14 | 53.08527 | -1.72983 | 11597 ft | 290 kts | 309° |
| 2026-05-04 20:15 | 53.09829 | -1.75541 | 11287 ft | 289 kts | 309° |
| 2026-05-04 20:15 | 53.11082 | -1.77991 | 10980 ft | 287 kts | 309° |
| 2026-05-04 20:15 | 53.12376 | -1.80516 | 10672 ft | 286 kts | 310° |
| 2026-05-04 20:15 | 53.13664 | -1.83026 | 10367 ft | 284 kts | 310° |
| 2026-05-04 20:16 | 53.14947 | -1.85524 | 10080 ft | 283 kts | 310° |
| 2026-05-04 20:16 | 53.16224 | -1.88011 | 9756 ft | 282 kts | 310° |
| 2026-05-04 20:16 | 53.17493 | -1.90488 | 9426 ft | 280 kts | 310° |
| 2026-05-04 20:16 | 53.18755 | -1.92953 | 9092 ft | 279 kts | 310° |
| 2026-05-04 20:17 | 53.20011 | -1.95407 | 8816 ft | 278 kts | 310° |
| 2026-05-04 20:17 | 53.21259 | -1.97857 | 8643 ft | 277 kts | 310° |
| 2026-05-04 20:17 | 53.22505 | -2.00301 | 8426 ft | 276 kts | 310° |
| 2026-05-04 20:17 | 53.23785 | -2.02671 | 8136 ft | 274 kts | 320° |
| 2026-05-04 20:18 | 53.25463 | -2.04130 | 8010 ft | 272 kts | 344° |
| 2026-05-04 20:18 | 53.27326 | -2.04457 | 7774 ft | 266 kts | 358° |
| 2026-05-04 20:18 | 53.29139 | -2.04194 | 7621 ft | 258 kts | 8° |
| 2026-05-04 20:18 | 53.30867 | -2.03505 | 7365 ft | 254 kts | 14° |
| 2026-05-04 20:19 | 53.32548 | -2.02690 | 7042 ft | 251 kts | 15° |
| 2026-05-04 20:19 | 53.34191 | -2.01811 | 6716 ft | 251 kts | 22° |
| 2026-05-04 20:19 | 53.35740 | -2.00438 | 6489 ft | 245 kts | 28° |
| 2026-05-04 20:19 | 53.37193 | -1.99020 | 6274 ft | 239 kts | 29° |
| 2026-05-04 20:20 | 53.38620 | -1.97613 | 6065 ft | 237 kts | 29° |
| 2026-05-04 20:20 | 53.40039 | -1.96210 | 5813 ft | 236 kts | 29° |
| 2026-05-04 20:20 | 53.41455 | -1.94815 | 5545 ft | 236 kts | 29° |
| 2026-05-04 20:20 | 53.42845 | -1.93442 | 5280 ft | 234 kts | 29° |
| 2026-05-04 20:21 | 53.44247 | -1.92052 | 5023 ft | 234 kts | 29° |
| 2026-05-04 20:21 | 53.45659 | -1.90652 | 4807 ft | 231 kts | 29° |
| 2026-05-04 20:21 | 53.48445 | -1.88585 | 4536 ft | 219 kts | 1° |
| 2026-05-04 20:22 | 53.49886 | -1.89101 | 4339 ft | 207 kts | 333° |
| 2026-05-04 20:22 | 53.50810 | -1.90776 | 4104 ft | 194 kts | 291° |
| 2026-05-04 20:22 | 53.50880 | -1.92912 | 4007 ft | 177 kts | 262° |
| 2026-05-04 20:22 | 53.50523 | -1.94806 | 3943 ft | 166 kts | 248° |
| 2026-05-04 20:23 | 53.49996 | -1.96532 | 3936 ft | 167 kts | 242° |
| 2026-05-04 20:23 | 53.49378 | -1.98180 | 3949 ft | 167 kts | 238° |
| 2026-05-04 20:23 | 53.48710 | -1.99770 | 3965 ft | 167 kts | 236° |
| 2026-05-04 20:23 | 53.48021 | -2.01334 | 3917 ft | 166 kts | 236° |
| 2026-05-04 20:24 | 53.47307 | -2.02863 | 3767 ft | 166 kts | 233° |
| 2026-05-04 20:24 | 53.46585 | -2.04369 | 3567 ft | 166 kts | 233° |
| 2026-05-04 20:24 | 53.45860 | -2.05871 | 3349 ft | 165 kts | 233° |
| 2026-05-04 20:24 | 53.45138 | -2.07364 | 3133 ft | 163 kts | 234° |
| 2026-05-04 20:25 | 53.44421 | -2.08846 | 2909 ft | 164 kts | 233° |
| 2026-05-04 20:25 | 53.43703 | -2.10332 | 2696 ft | 164 kts | 234° |
| 2026-05-04 20:25 | 53.42983 | -2.11818 | 2477 ft | 164 kts | 233° |
| 2026-05-04 20:25 | 53.42262 | -2.13308 | 2247 ft | 164 kts | 234° |
| 2026-05-04 20:26 | 53.41542 | -2.14795 | 2021 ft | 164 kts | 234° |
| 2026-05-04 20:26 | 53.40822 | -2.16281 | 1805 ft | 164 kts | 234° |
| 2026-05-04 20:26 | 53.40103 | -2.17765 | 1590 ft | 162 kts | 234° |
| 2026-05-04 20:26 | 53.39405 | -2.19203 | 1382 ft | 149 kts | 234° |
| 2026-05-04 20:27 | 53.38797 | -2.20459 | 1136 ft | 136 kts | 234° |
| 2026-05-04 20:27 | 53.38202 | -2.21686 | 955 ft | 135 kts | 235° |
| 2026-05-04 20:27 | 53.37604 | -2.22894 | 763 ft | 134 kts | 233° |
| 2026-05-04 20:27 | 53.37012 | -2.24094 | 568 ft | 134 kts | 235° |
| 2026-05-04 20:28 | 53.36432 | -2.25313 | 382 ft | 134 kts | 234° |
| 2026-05-04 20:28 | 53.35844 | -2.26526 | 287 ft | 134 kts | 235° |
| 2026-05-04 20:28 | 53.35323 | -2.27605 | 247 ft | 95 kts | 232° |
| 2026-05-04 20:28 | 53.35071 | -2.28118 | 239 ft | 32 kts | 233° |
| 2026-05-04 20:29 | 53.34971 | -2.28419 | 237 ft | 30 kts | 251° |
| 2026-05-04 20:29 | 53.34945 | -2.28620 | 234 ft | 12 kts | 261° |
| 2026-05-04 20:29 | 53.34959 | -2.28728 | 234 ft | 11 kts | 313° |
| 2026-05-04 20:29 | 53.35027 | -2.28715 | 234 ft | 8 kts | 45° |
| 2026-05-04 20:30 | 53.35055 | -2.28662 | 234 ft | 7 kts | 51° |
| 2026-05-04 20:30 | 53.35090 | -2.28590 | 234 ft | 9 kts | 50° |
| 2026-05-04 20:30 | 53.35108 | -2.28554 | 234 ft | 0 kts | 50° |
| 2026-05-04 20:31 | 53.35109 | -2.28553 | 233 ft | 1 kts | 50° |
| 2026-05-04 20:31 | 53.35119 | -2.28533 | 233 ft | 4 kts | 51° |
| 2026-05-04 20:31 | 53.35154 | -2.28460 | 232 ft | 11 kts | 50° |
| 2026-05-04 20:32 | 53.35211 | -2.28344 | 237 ft | 15 kts | 50° |
| 2026-05-04 20:32 | 53.35292 | -2.28222 | 238 ft | 17 kts | 30° |
| 2026-05-04 20:32 | 53.35411 | -2.28163 | 241 ft | 19 kts | 7° |
| 2026-05-04 20:32 | 53.35533 | -2.28080 | 239 ft | 17 kts | 42° |
| 2026-05-04 20:33 | 53.35599 | -2.27955 | 244 ft | 15 kts | 50° |
| 2026-05-04 20:33 | 53.35630 | -2.27901 | 246 ft | 8 kts | 27° |
| 2026-05-04 20:33 | 53.35698 | -2.27882 | 250 ft | 12 kts | 5° |
| 2026-05-04 20:33 | 53.35795 | -2.27867 | 255 ft | 16 kts | 5° |
| 2026-05-04 20:34 | 53.35911 | -2.27849 | 261 ft | 15 kts | 4° |
| 2026-05-04 20:34 | 53.36001 | -2.27916 | 260 ft | 14 kts | 320° |
| 2026-05-04 20:34 | 53.36080 | -2.28029 | 260 ft | 16 kts | 318° |
| 2026-05-04 20:34 | 53.36164 | -2.28163 | 260 ft | 17 kts | 314° |
| 2026-05-04 20:35 | 53.36222 | -2.28263 | 260 ft | 19 kts | 314° |
| 2026-05-04 20:35 | 53.36297 | -2.28391 | 260 ft | 10 kts | 314° |
| 2026-05-04 20:35 | 53.36357 | -2.28469 | 260 ft | 11 kts | 346° |
| 2026-05-04 20:35 | 53.36423 | -2.28502 | 260 ft | 11 kts | 326° |
| 2026-05-04 20:36 | 53.36483 | -2.28595 | 260 ft | 13 kts | 315° |
| 2026-05-04 20:36 | 53.36543 | -2.28695 | 260 ft | 10 kts | 314° |
| 2026-05-04 20:36 | 53.36588 | -2.28803 | 260 ft | 12 kts | 297° |
| 2026-05-04 20:36 | 53.36648 | -2.28921 | 260 ft | 14 kts | 315° |
| 2026-05-04 20:37 | 53.36711 | -2.29027 | 260 ft | 8 kts | 314° |
| 2026-05-04 20:37 | 53.36752 | -2.29071 | 260 ft | 8 kts | 356° |
| 2026-05-04 20:37 | 53.36813 | -2.29044 | 260 ft | 10 kts | 18° |
| 2026-05-04 20:37 | 53.36872 | -2.28976 | 260 ft | 6 kts | 43° |
| 2026-05-04 20:38 | 53.36883 | -2.28959 | 260 ft | 2 kts | 43° |
| 2026-05-04 20:38 | 53.36890 | -2.28948 | 260 ft | 0 kts | 43° |
| 2026-05-04 20:39 | 53.36900 | -2.28925 | 260 ft | 5 kts | 71° |
| 2026-05-04 20:40 | 53.36879 | -2.28862 | 260 ft | 6 kts | 133° |
| 2026-05-04 20:40 | 53.36867 | -2.28840 | 260 ft | 0 kts | 133° |
| 2026-05-04 20:40 | 53.36866 | -2.28837 | 260 ft | 0 kts | 133° |